Terminal Aerodrome Forecast
Issued by NWS Sioux Falls, SD

Home | Current Version | Previous Version | Text Only | Print | Product List | Glossary Off
Versions: 1 2 3 4 5 6 7 8 9 10 11 12 13 14 15

000
FTUS43 KFSD 171720
TAFFSD
TAF
KFSD 171720Z 1718/1818 05004KT P6SM SCT040
     FM180200 09005KT P6SM SCT100 BKN250
     FM181100 11005KT 5SM BR SCT010
     FM181500 15008KT P6SM BKN015=

USA.gov is the U.S. government's official web portal to all federal, state and local government web resources and services.